University Park, PA (16802)

7:46 AM EST on January 20, 2017 (GMT -0500)
College Heights | | Change Station
Active Advisory: Freezing Rain Advisory

Elev 1219 ft 40.80 °N, 77.87 °W | Updated 33 seconds ago

Partly Cloudy
Partly Cloudy
30.1 °F
Feels Like 30 °F
N
0.0
Wind Variable Wind from SE
Gusts 0.0 mph

Today
High -- | Low -- °F
--% Chance of Precip.
Yesterday
High -- | Low -- °F
Precip. -- in
Pressure 29.88 in
Visibility 5.0 miles
Clouds Clear
Windchill 30 °F
Dew Point 29 °F
Humidity 95%
Rainfall 0.00 in
Snow Depth Not available.
7:30 AM 5:14 PM
Last Quarter, 44% visible
SPECI KUNV 201215Z 33004KT 5SM BR SKC M02/M02 A2988
Pressure 29.88 in
Visibility 5.0 miles
Clouds Clear
Windchill 30 °F
Dew Point 29 °F
Humidity 95%
Rainfall 0.00 in
Snow Depth Not available.
7:30 AM 5:14 PM
Last Quarter, 44% visible
SPECI KUNV 201215Z 33004KT 5SM BR SKC M02/M02 A2988

Get Your Daily Forecast Email!

Thanks for signing up!

Be on the lookout for a verification email in your inbox.

You'll start receiving the daily forecast at 8 AM.

×

10-Day Weather Forecast

Almanac

Astronomy

Jan. 20, 2017 Rise Set
Actual Time
Civil Twilight
Nautical Twilight
Astronomical Twilight
Moon
Length of Visible Light
Length of Day
Tomorrow will be .
, % of the Moon is Illuminated

Today's Extremes

State Highs State Lows

Community

WunderPhotos

Upload Photos

1,962,540 photos uploaded!

WunderBlog® & News

Nearby

Air Quality

  Air Quality AQ Index Pollutant
Not available.

Snow Depth

Station Depth Elevation

Earthquake Activity

City Distance Mag. Time & Date
Minimum magnitude displayed is 2.5.

Coastal Water Temperatures

Place Temperature

Stations

Nearby Weather Stations

Station Location Temp. Windchill Dew Point Humidity Wind Precip. Elev Updated Type
                   

Watches & Warnings

Freezing Rain Advisory
Issued: 3:43 AM EST Jan. 20, 2017 – National Weather Service

... Freezing Rain Advisory in effect until 10 am EST this
morning...

The National Weather Service in State College has issued a
Freezing Rain Advisory... which is in effect until 10 am EST this
morning.

* Hazard types... pockets of light freezing rain.

* Ice accumulations... a trace to a couple of hundredths.

* Timing... from around sunrise through mid morning.

* Impacts... pockets of sub freezing conditions are likely early
today as an area of rain overspreads the region. Spotty light
freezing rain could cause localized slippery conditions on
untreated roads and walkways. Overpasses and bridges will be
most susceptible to becoming slippery and hazardous.

Temperatures will warm to above freezing by mid morning
diminishing the icing threat.

Precautionary/preparedness actions...

It only takes a small amount of ice to make travel very hazardous.

The Pennsylvania Department of Transportation reminds motorists
to adjust speeds based on driving conditions and to take it slow
in ice and snow.



La corte